sensor_id;sensor_type;location;lat;lon;timestamp;temperature;humidity
12452;DHT22;6291;48.924;12.204;2023-02-02T00:04:33;7.60;99.90
12452;DHT22;6291;48.924;12.204;2023-02-02T00:09:36;4.90;99.90
12452;DHT22;6291;48.924;12.204;2023-02-02T00:14:41;7.80;99.90
12452;DHT22;6291;48.924;12.204;2023-02-02T00:19:44;7.80;99.90
12452;DHT22;6291;48.924;12.204;2023-02-02T00:24:48;6.30;99.90
12452;DHT22;6291;48.924;12.204;2023-02-02T00:29:53;4.90;99.90
12452;DHT22;6291;48.924;12.204;2023-02-02T00:35:00;5.50;99.90
12452;DHT22;6291;48.924;12.204;2023-02-02T00:40:04;7.80;99.90
12452;DHT22;6291;48.924;12.204;2023-02-02T00:45:12;4.90;99.90
12452;DHT22;6291;48.924;12.204;2023-02-02T00:50:20;7.50;99.90
12452;DHT22;6291;48.924;12.204;2023-02-02T00:55:23;7.60;99.90
12452;DHT22;6291;48.924;12.204;2023-02-02T01:00:28;4.80;99.90
12452;DHT22;6291;48.924;12.204;2023-02-02T01:05:33;5.00;99.90
12452;DHT22;6291;48.924;12.204;2023-02-02T01:10:36;7.30;99.90
12452;DHT22;6291;48.924;12.204;2023-02-02T01:15:41;7.40;99.90
12452;DHT22;6291;48.924;12.204;2023-02-02T01:20:44;6.80;99.90
12452;DHT22;6291;48.924;12.204;2023-02-02T01:25:52;6.60;99.90
12452;DHT22;6291;48.924;12.204;2023-02-02T01:30:57;4.50;99.90
12452;DHT22;6291;48.924;12.204;2023-02-02T01:36:04;4.40;99.90
12452;DHT22;6291;48.924;12.204;2023-02-02T01:41:11;4.40;99.90
12452;DHT22;6291;48.924;12.204;2023-02-02T01:46:17;7.20;99.90
12452;DHT22;6291;48.924;12.204;2023-02-02T01:51:23;4.30;1.00
12452;DHT22;6291;48.924;12.204;2023-02-02T01:56:30;4.20;1.00
12452;DHT22;6291;48.924;12.204;2023-02-02T02:01:36;5.00;1.00
12452;DHT22;6291;48.924;12.204;2023-02-02T02:06:39;5.70;99.90
12452;DHT22;6291;48.924;12.204;2023-02-02T02:11:43;7.70;1.00
12452;DHT22;6291;48.924;12.204;2023-02-02T02:16:57;7.40;1.00
12452;DHT22;6291;48.924;12.204;2023-02-02T02:22:07;5.60;1.00
12452;DHT22;6291;48.924;12.204;2023-02-02T02:27:56;4.10;99.90
12452;DHT22;6291;48.924;12.204;2023-02-02T02:33:05;4.00;99.90
12452;DHT22;6291;48.924;12.204;2023-02-02T02:38:17;6.60;1.00
12452;DHT22;6291;48.924;12.204;2023-02-02T02:43:29;3.50;1.00
12452;DHT22;6291;48.924;12.204;2023-02-02T02:48:35;7.00;1.00
12452;DHT22;6291;48.924;12.204;2023-02-02T02:53:38;3.30;1.00
12452;DHT22;6291;48.924;12.204;2023-02-02T02:58:49;2.80;1.00
12452;DHT22;6291;48.924;12.204;2023-02-02T03:04:06;2.30;99.90
12452;DHT22;6291;48.924;12.204;2023-02-02T03:09:13;4.30;1.00
12452;DHT22;6291;48.924;12.204;2023-02-02T03:14:17;4.90;1.00
12452;DHT22;6291;48.924;12.204;2023-02-02T03:19:22;4.70;1.00
12452;DHT22;6291;48.924;12.204;2023-02-02T03:24:26;1.70;1.00
12452;DHT22;6291;48.924;12.204;2023-02-02T03:29:29;1.60;91.80
12452;DHT22;6291;48.924;12.204;2023-02-02T03:34:34;1.50;99.90
12452;DHT22;6291;48.924;12.204;2023-02-02T03:39:37;1.50;99.90
12452;DHT22;6291;48.924;12.204;2023-02-02T03:44:40;1.50;99.90
12452;DHT22;6291;48.924;12.204;2023-02-02T03:49:45;3.10;99.90
12452;DHT22;6291;48.924;12.204;2023-02-02T03:54:48;1.30;99.90
12452;DHT22;6291;48.924;12.204;2023-02-02T03:59:52;4.70;99.90
12452;DHT22;6291;48.924;12.204;2023-02-02T04:04:57;1.20;99.90
12452;DHT22;6291;48.924;12.204;2023-02-02T04:10:00;1.20;99.90
12452;DHT22;6291;48.924;12.204;2023-02-02T04:15:04;1.20;99.90
12452;DHT22;6291;48.924;12.204;2023-02-02T04:20:10;1.10;99.90
12452;DHT22;6291;48.924;12.204;2023-02-02T04:25:14;1.40;99.90
12452;DHT22;6291;48.924;12.204;2023-02-02T04:30:18;1.40;99.90
12452;DHT22;6291;48.924;12.204;2023-02-02T04:35:23;1.30;99.90
12452;DHT22;6291;48.924;12.204;2023-02-02T04:40:27;1.30;99.90
12452;DHT22;6291;48.924;12.204;2023-02-02T04:45:31;1.30;99.90
12452;DHT22;6291;48.924;12.204;2023-02-02T04:50:36;1.10;99.90
12452;DHT22;6291;48.924;12.204;2023-02-02T04:55:39;2.30;99.90
12452;DHT22;6291;48.924;12.204;2023-02-02T05:00:43;2.60;99.90
12452;DHT22;6291;48.924;12.204;2023-02-02T05:05:47;2.50;99.90
12452;DHT22;6291;48.924;12.204;2023-02-02T05:10:51;2.30;99.90
12452;DHT22;6291;48.924;12.204;2023-02-02T05:15:54;3.60;99.90
12452;DHT22;6291;48.924;12.204;2023-02-02T05:21:00;2.60;99.90
12452;DHT22;6291;48.924;12.204;2023-02-02T05:26:04;3.20;99.90
12452;DHT22;6291;48.924;12.204;2023-02-02T05:31:07;3.20;99.90
12452;DHT22;6291;48.924;12.204;2023-02-02T05:36:13;3.20;99.90
12452;DHT22;6291;48.924;12.204;2023-02-02T05:41:16;2.80;99.90
12452;DHT22;6291;48.924;12.204;2023-02-02T05:46:20;1.00;99.90
12452;DHT22;6291;48.924;12.204;2023-02-02T05:51:27;1.80;99.90
12452;DHT22;6291;48.924;12.204;2023-02-02T05:56:31;2.40;99.90
12452;DHT22;6291;48.924;12.204;2023-02-02T06:01:34;0.90;99.90
12452;DHT22;6291;48.924;12.204;2023-02-02T06:06:39;2.30;99.90
12452;DHT22;6291;48.924;12.204;2023-02-02T06:11:44;2.90;99.90
12452;DHT22;6291;48.924;12.204;2023-02-02T06:16:47;2.50;99.90
12452;DHT22;6291;48.924;12.204;2023-02-02T06:21:52;2.50;99.90
12452;DHT22;6291;48.924;12.204;2023-02-02T06:26:55;3.10;99.90
12452;DHT22;6291;48.924;12.204;2023-02-02T06:31:58;2.20;99.90
12452;DHT22;6291;48.924;12.204;2023-02-02T06:37:03;2.70;99.90
12452;DHT22;6291;48.924;12.204;2023-02-02T06:42:07;2.90;99.90
12452;DHT22;6291;48.924;12.204;2023-02-02T06:47:22;3.70;99.90
12452;DHT22;6291;48.924;12.204;2023-02-02T06:52:29;3.50;99.90
12452;DHT22;6291;48.924;12.204;2023-02-02T06:57:32;3.40;99.90
12452;DHT22;6291;48.924;12.204;2023-02-02T07:02:35;2.90;99.90
12452;DHT22;6291;48.924;12.204;2023-02-02T07:07:40;2.40;99.90
12452;DHT22;6291;48.924;12.204;2023-02-02T07:12:44;2.10;99.90
12452;DHT22;6291;48.924;12.204;2023-02-02T07:17:47;2.90;99.90
12452;DHT22;6291;48.924;12.204;2023-02-02T07:22:52;2.80;99.90
12452;DHT22;6291;48.924;12.204;2023-02-02T07:27:55;2.80;99.90
12452;DHT22;6291;48.924;12.204;2023-02-02T07:32:58;3.10;99.90
12452;DHT22;6291;48.924;12.204;2023-02-02T07:38:04;2.90;99.90
12452;DHT22;6291;48.924;12.204;2023-02-02T07:43:07;2.80;99.90
12452;DHT22;6291;48.924;12.204;2023-02-02T07:48:11;2.80;99.90
12452;DHT22;6291;48.924;12.204;2023-02-02T07:53:15;1.50;99.90
12452;DHT22;6291;48.924;12.204;2023-02-02T07:58:19;2.90;99.90
12452;DHT22;6291;48.924;12.204;2023-02-02T08:03:22;2.90;99.90
12452;DHT22;6291;48.924;12.204;2023-02-02T08:08:27;1.90;99.90
12452;DHT22;6291;48.924;12.204;2023-02-02T08:13:30;2.30;99.90
12452;DHT22;6291;48.924;12.204;2023-02-02T08:18:34;0.10;99.90
12452;DHT22;6291;48.924;12.204;2023-02-02T08:23:40;2.50;99.90
12452;DHT22;6291;48.924;12.204;2023-02-02T08:28:45;3.80;99.90
12452;DHT22;6291;48.924;12.204;2023-02-02T08:33:49;3.20;99.90
12452;DHT22;6291;48.924;12.204;2023-02-02T08:38:59;3.30;99.90
12452;DHT22;6291;48.924;12.204;2023-02-02T08:44:05;2.40;99.90
12452;DHT22;6291;48.924;12.204;2023-02-02T08:49:12;3.10;99.90
12452;DHT22;6291;48.924;12.204;2023-02-02T08:54:17;1.50;99.90
12452;DHT22;6291;48.924;12.204;2023-02-02T08:59:21;2.30;99.90
12452;DHT22;6291;48.924;12.204;2023-02-02T09:04:24;2.70;99.90
12452;DHT22;6291;48.924;12.204;2023-02-02T09:09:29;2.50;99.90
12452;DHT22;6291;48.924;12.204;2023-02-02T09:14:32;2.70;99.90
12452;DHT22;6291;48.924;12.204;2023-02-02T09:19:35;1.50;99.90
12452;DHT22;6291;48.924;12.204;2023-02-02T09:24:40;3.20;99.90
12452;DHT22;6291;48.924;12.204;2023-02-02T09:29:43;3.50;99.90
12452;DHT22;6291;48.924;12.204;2023-02-02T09:34:47;3.10;99.90
12452;DHT22;6291;48.924;12.204;2023-02-02T09:39:51;1.60;99.90
12452;DHT22;6291;48.924;12.204;2023-02-02T09:50:33;1.40;99.90
12452;DHT22;6291;48.924;12.204;2023-02-02T09:55:42;1.40;99.90
12452;DHT22;6291;48.924;12.204;2023-02-02T10:00:52;2.20;99.90
12452;DHT22;6291;48.924;12.204;2023-02-02T10:06:01;3.50;99.90
12452;DHT22;6291;48.924;12.204;2023-02-02T10:11:24;2.90;99.90
12452;DHT22;6291;48.924;12.204;2023-02-02T10:16:29;-1.20;99.90
12452;DHT22;6291;48.924;12.204;2023-02-02T10:21:39;2.60;99.90
12452;DHT22;6291;48.924;12.204;2023-02-02T10:26:48;3.60;99.90
12452;DHT22;6291;48.924;12.204;2023-02-02T10:31:59;3.00;99.90
12452;DHT22;6291;48.924;12.204;2023-02-02T10:37:21;3.00;99.90
12452;DHT22;6291;48.924;12.204;2023-02-02T10:42:36;2.30;99.90
12452;DHT22;6291;48.924;12.204;2023-02-02T10:47:46;2.70;99.90
12452;DHT22;6291;48.924;12.204;2023-02-02T10:52:53;2.10;99.90
12452;DHT22;6291;48.924;12.204;2023-02-02T10:58:05;1.60;99.90
12452;DHT22;6291;48.924;12.204;2023-02-02T11:03:14;2.30;99.90
12452;DHT22;6291;48.924;12.204;2023-02-02T11:08:20;2.70;99.90
12452;DHT22;6291;48.924;12.204;2023-02-02T11:13:30;1.80;99.90
12452;DHT22;6291;48.924;12.204;2023-02-02T11:18:34;2.00;99.90
12452;DHT22;6291;48.924;12.204;2023-02-02T11:23:37;2.40;99.90
12452;DHT22;6291;48.924;12.204;2023-02-02T11:28:42;2.30;99.90
12452;DHT22;6291;48.924;12.204;2023-02-02T11:33:45;1.80;99.90
12452;DHT22;6291;48.924;12.204;2023-02-02T11:39:13;1.70;99.90
12452;DHT22;6291;48.924;12.204;2023-02-02T11:44:23;1.90;99.90
12452;DHT22;6291;48.924;12.204;2023-02-02T11:49:27;1.90;99.90
12452;DHT22;6291;48.924;12.204;2023-02-02T11:54:34;1.90;99.90
12452;DHT22;6291;48.924;12.204;2023-02-02T11:59:41;1.80;99.90
12452;DHT22;6291;48.924;12.204;2023-02-02T12:04:46;3.30;99.90
12452;DHT22;6291;48.924;12.204;2023-02-02T12:09:50;1.90;99.90
12452;DHT22;6291;48.924;12.204;2023-02-02T12:15:00;1.90;99.90
12452;DHT22;6291;48.924;12.204;2023-02-02T12:20:14;1.80;99.90
12452;DHT22;6291;48.924;12.204;2023-02-02T12:25:39;2.60;99.90
12452;DHT22;6291;48.924;12.204;2023-02-02T12:30:53;2.40;99.90
12452;DHT22;6291;48.924;12.204;2023-02-02T12:36:20;2.10;99.90
12452;DHT22;6291;48.924;12.204;2023-02-02T12:41:32;2.80;99.90
12452;DHT22;6291;48.924;12.204;2023-02-02T12:46:53;3.40;99.90
12452;DHT22;6291;48.924;12.204;2023-02-02T12:52:15;1.60;99.90
12452;DHT22;6291;48.924;12.204;2023-02-02T12:57:34;2.90;99.90
12452;DHT22;6291;48.924;12.204;2023-02-02T13:02:47;3.10;99.90
12452;DHT22;6291;48.924;12.204;2023-02-02T13:07:58;3.60;99.90
12452;DHT22;6291;48.924;12.204;2023-02-02T13:13:06;2.30;99.90
12452;DHT22;6291;48.924;12.204;2023-02-02T13:18:15;1.70;99.90
12452;DHT22;6291;48.924;12.204;2023-02-02T13:23:24;2.70;99.90
12452;DHT22;6291;48.924;12.204;2023-02-02T13:28:37;2.30;99.90
12452;DHT22;6291;48.924;12.204;2023-02-02T13:33:45;3.50;99.90
12452;DHT22;6291;48.924;12.204;2023-02-02T13:38:54;1.80;99.90
12452;DHT22;6291;48.924;12.204;2023-02-02T13:44:02;3.30;99.90
12452;DHT22;6291;48.924;12.204;2023-02-02T13:49:13;1.90;99.90
12452;DHT22;6291;48.924;12.204;2023-02-02T13:54:46;1.90;99.90
12452;DHT22;6291;48.924;12.204;2023-02-02T13:59:59;1.90;99.90
12452;DHT22;6291;48.924;12.204;2023-02-02T14:05:20;2.00;99.90
12452;DHT22;6291;48.924;12.204;2023-02-02T14:10:28;1.90;99.90
12452;DHT22;6291;48.924;12.204;2023-02-02T14:15:37;1.90;99.90
12452;DHT22;6291;48.924;12.204;2023-02-02T14:20:44;1.90;99.90
12452;DHT22;6291;48.924;12.204;2023-02-02T14:25:59;2.00;99.90
12452;DHT22;6291;48.924;12.204;2023-02-02T14:36:39;1.80;99.90
12452;DHT22;6291;48.924;12.204;2023-02-02T14:42:16;1.70;99.90
12452;DHT22;6291;48.924;12.204;2023-02-02T14:47:46;1.80;99.90
12452;DHT22;6291;48.924;12.204;2023-02-02T14:52:59;1.70;99.90
12452;DHT22;6291;48.924;12.204;2023-02-02T14:58:04;1.60;99.90
12452;DHT22;6291;48.924;12.204;2023-02-02T15:03:33;3.00;99.90
12452;DHT22;6291;48.924;12.204;2023-02-02T15:08:38;1.40;99.90
12452;DHT22;6291;48.924;12.204;2023-02-02T15:13:44;3.40;99.90
12452;DHT22;6291;48.924;12.204;2023-02-02T15:18:57;2.60;99.90
12452;DHT22;6291;48.924;12.204;2023-02-02T15:24:04;1.90;99.90
12452;DHT22;6291;48.924;12.204;2023-02-02T15:29:15;1.40;99.90
12452;DHT22;6291;48.924;12.204;2023-02-02T15:34:23;1.30;99.90
12452;DHT22;6291;48.924;12.204;2023-02-02T15:39:31;1.20;99.90
12452;DHT22;6291;48.924;12.204;2023-02-02T15:44:36;4.80;99.90
12452;DHT22;6291;48.924;12.204;2023-02-02T15:49:40;1.20;99.90
12452;DHT22;6291;48.924;12.204;2023-02-02T15:54:50;1.20;99.90
12452;DHT22;6291;48.924;12.204;2023-02-02T15:59:55;1.20;99.90
12452;DHT22;6291;48.924;12.204;2023-02-02T16:04:59;1.10;99.90
12452;DHT22;6291;48.924;12.204;2023-02-02T16:10:05;1.20;99.90
12452;DHT22;6291;48.924;12.204;2023-02-02T16:15:21;1.10;99.90
12452;DHT22;6291;48.924;12.204;2023-02-02T16:20:26;3.00;99.90
12452;DHT22;6291;48.924;12.204;2023-02-02T16:25:35;1.20;99.90
12452;DHT22;6291;48.924;12.204;2023-02-02T16:30:39;1.20;99.90
12452;DHT22;6291;48.924;12.204;2023-02-02T16:35:43;1.20;99.90
12452;DHT22;6291;48.924;12.204;2023-02-02T16:40:48;1.30;99.90
12452;DHT22;6291;48.924;12.204;2023-02-02T16:45:54;1.20;99.90
12452;DHT22;6291;48.924;12.204;2023-02-02T16:56:40;1.20;99.90
12452;DHT22;6291;48.924;12.204;2023-02-02T17:01:47;1.20;99.90
12452;DHT22;6291;48.924;12.204;2023-02-02T17:06:52;1.20;99.90
12452;DHT22;6291;48.924;12.204;2023-02-02T17:11:59;1.20;99.90
12452;DHT22;6291;48.924;12.204;2023-02-02T17:17:05;2.60;99.90
12452;DHT22;6291;48.924;12.204;2023-02-02T17:22:09;1.10;99.90
12452;DHT22;6291;48.924;12.204;2023-02-02T17:27:24;1.10;99.90
12452;DHT22;6291;48.924;12.204;2023-02-02T17:32:29;1.10;99.90
12452;DHT22;6291;48.924;12.204;2023-02-02T17:37:36;1.10;99.90
12452;DHT22;6291;48.924;12.204;2023-02-02T17:42:41;3.70;99.90
12452;DHT22;6291;48.924;12.204;2023-02-02T17:47:45;1.10;99.90
12452;DHT22;6291;48.924;12.204;2023-02-02T17:52:49;0.70;99.90
12452;DHT22;6291;48.924;12.204;2023-02-02T17:57:54;1.20;99.90
12452;DHT22;6291;48.924;12.204;2023-02-02T18:02:59;2.00;99.90
12452;DHT22;6291;48.924;12.204;2023-02-02T18:08:03;1.20;99.90
12452;DHT22;6291;48.924;12.204;2023-02-02T18:13:11;1.20;99.90
12452;DHT22;6291;48.924;12.204;2023-02-02T18:18:15;1.10;99.90
12452;DHT22;6291;48.924;12.204;2023-02-02T18:23:19;1.00;99.90
12452;DHT22;6291;48.924;12.204;2023-02-02T18:28:26;1.00;99.90
12452;DHT22;6291;48.924;12.204;2023-02-02T18:33:30;1.00;99.90
12452;DHT22;6291;48.924;12.204;2023-02-02T18:38:34;1.00;99.90
12452;DHT22;6291;48.924;12.204;2023-02-02T18:43:39;1.00;99.90
12452;DHT22;6291;48.924;12.204;2023-02-02T18:48:42;4.60;99.90
12452;DHT22;6291;48.924;12.204;2023-02-02T18:53:47;1.00;99.90
12452;DHT22;6291;48.924;12.204;2023-02-02T18:58:52;1.00;99.90
12452;DHT22;6291;48.924;12.204;2023-02-02T19:03:55;1.00;99.90
12452;DHT22;6291;48.924;12.204;2023-02-02T19:08:59;1.00;99.90
12452;DHT22;6291;48.924;12.204;2023-02-02T19:14:11;1.00;99.90
12452;DHT22;6291;48.924;12.204;2023-02-02T19:19:21;3.10;99.90
12452;DHT22;6291;48.924;12.204;2023-02-02T19:24:26;1.00;99.90
12452;DHT22;6291;48.924;12.204;2023-02-02T19:29:34;1.00;99.90
12452;DHT22;6291;48.924;12.204;2023-02-02T19:34:40;1.00;99.90
12452;DHT22;6291;48.924;12.204;2023-02-02T19:39:44;4.80;99.90
12452;DHT22;6291;48.924;12.204;2023-02-02T19:44:49;1.00;99.90
12452;DHT22;6291;48.924;12.204;2023-02-02T19:49:52;4.00;99.90
12452;DHT22;6291;48.924;12.204;2023-02-02T19:54:56;1.00;99.90
12452;DHT22;6291;48.924;12.204;2023-02-02T20:00:09;1.00;99.90
12452;DHT22;6291;48.924;12.204;2023-02-02T20:05:17;1.00;99.90
12452;DHT22;6291;48.924;12.204;2023-02-02T20:10:23;1.00;99.90
12452;DHT22;6291;48.924;12.204;2023-02-02T20:15:31;1.00;99.90
12452;DHT22;6291;48.924;12.204;2023-02-02T20:20:37;1.00;99.90
12452;DHT22;6291;48.924;12.204;2023-02-02T20:25:41;3.00;99.90
12452;DHT22;6291;48.924;12.204;2023-02-02T20:30:47;1.00;99.90
12452;DHT22;6291;48.924;12.204;2023-02-02T20:35:51;4.00;99.90
12452;DHT22;6291;48.924;12.204;2023-02-02T20:40:55;3.60;99.90
12452;DHT22;6291;48.924;12.204;2023-02-02T20:46:01;1.00;99.90
12452;DHT22;6291;48.924;12.204;2023-02-02T20:51:05;1.10;99.90
12452;DHT22;6291;48.924;12.204;2023-02-02T20:56:08;1.00;99.90
12452;DHT22;6291;48.924;12.204;2023-02-02T21:01:13;1.10;99.90
12452;DHT22;6291;48.924;12.204;2023-02-02T21:06:17;1.10;99.90
12452;DHT22;6291;48.924;12.204;2023-02-02T21:11:21;4.80;99.90
12452;DHT22;6291;48.924;12.204;2023-02-02T21:16:25;1.20;99.90
12452;DHT22;6291;48.924;12.204;2023-02-02T21:21:30;1.20;99.90
12452;DHT22;6291;48.924;12.204;2023-02-02T21:26:34;1.20;99.90
12452;DHT22;6291;48.924;12.204;2023-02-02T21:31:39;1.20;99.90
12452;DHT22;6291;48.924;12.204;2023-02-02T21:36:45;1.20;99.90
12452;DHT22;6291;48.924;12.204;2023-02-02T21:41:49;1.20;99.90
12452;DHT22;6291;48.924;12.204;2023-02-02T21:46:58;1.20;99.90
12452;DHT22;6291;48.924;12.204;2023-02-02T21:52:13;1.20;99.90
12452;DHT22;6291;48.924;12.204;2023-02-02T21:57:18;1.30;99.90
12452;DHT22;6291;48.924;12.204;2023-02-02T22:02:36;1.20;99.90
12452;DHT22;6291;48.924;12.204;2023-02-02T22:07:47;1.20;99.90
12452;DHT22;6291;48.924;12.204;2023-02-02T22:12:50;1.70;99.90
12452;DHT22;6291;48.924;12.204;2023-02-02T22:17:55;1.30;99.90
12452;DHT22;6291;48.924;12.204;2023-02-02T22:23:00;1.30;99.90
12452;DHT22;6291;48.924;12.204;2023-02-02T22:28:13;1.20;99.90
12452;DHT22;6291;48.924;12.204;2023-02-02T22:33:21;1.50;99.90
12452;DHT22;6291;48.924;12.204;2023-02-02T22:38:27;1.20;99.90
12452;DHT22;6291;48.924;12.204;2023-02-02T22:43:30;1.20;99.90
12452;DHT22;6291;48.924;12.204;2023-02-02T22:48:35;1.20;99.90
12452;DHT22;6291;48.924;12.204;2023-02-02T22:53:38;1.20;99.90
12452;DHT22;6291;48.924;12.204;2023-02-02T22:58:41;1.20;99.90
12452;DHT22;6291;48.924;12.204;2023-02-02T23:03:46;1.30;99.90
12452;DHT22;6291;48.924;12.204;2023-02-02T23:08:50;2.70;99.90
12452;DHT22;6291;48.924;12.204;2023-02-02T23:13:53;2.80;99.90
12452;DHT22;6291;48.924;12.204;2023-02-02T23:18:58;1.50;99.90
12452;DHT22;6291;48.924;12.204;2023-02-02T23:24:01;1.60;99.90
12452;DHT22;6291;48.924;12.204;2023-02-02T23:29:05;1.80;99.90
12452;DHT22;6291;48.924;12.204;2023-02-02T23:34:09;1.80;99.90
12452;DHT22;6291;48.924;12.204;2023-02-02T23:39:13;1.80;99.90
12452;DHT22;6291;48.924;12.204;2023-02-02T23:44:16;1.60;99.90
12452;DHT22;6291;48.924;12.204;2023-02-02T23:49:21;1.70;99.90
12452;DHT22;6291;48.924;12.204;2023-02-02T23:54:26;2.20;99.90
12452;DHT22;6291;48.924;12.204;2023-02-02T23:59:29;1.80;99.90
